createdAt,value
2018-07-21T00:00:18.524Z,17.18
2018-07-21T00:02:47.705Z,17.17
2018-07-21T00:05:16.859Z,17.18
2018-07-21T00:07:46.006Z,17.19
2018-07-21T00:10:15.186Z,17.20
2018-07-21T00:12:44.505Z,17.17
2018-07-21T00:15:13.660Z,17.16
2018-07-21T00:17:43.458Z,17.13
2018-07-21T00:20:12.629Z,16.98
2018-07-21T00:22:41.802Z,16.95
2018-07-21T00:25:11.206Z,16.94
2018-07-21T00:27:40.358Z,16.86
2018-07-21T00:30:09.559Z,16.82
2018-07-21T00:32:38.739Z,16.78
2018-07-21T00:35:08.138Z,16.78
2018-07-21T00:37:37.347Z,16.79
2018-07-21T00:40:06.530Z,16.79
2018-07-21T00:42:35.710Z,16.76
2018-07-21T00:45:05.137Z,16.76
2018-07-21T00:47:34.354Z,16.65
2018-07-21T00:50:03.622Z,16.57
2018-07-21T00:52:32.805Z,16.51
2018-07-21T00:55:01.999Z,16.48
2018-07-21T00:57:31.659Z,16.44
2018-07-21T01:00:00.861Z,16.34
2018-07-21T01:02:30.086Z,16.21
2018-07-21T01:04:59.232Z,16.16
2018-07-21T01:07:28.421Z,16.12
2018-07-21T01:09:57.664Z,16.11
2018-07-21T01:12:26.817Z,16.10
2018-07-21T01:14:56.008Z,16.13
2018-07-21T01:17:25.184Z,16.14
2018-07-21T01:19:54.369Z,16.19
2018-07-21T01:22:23.533Z,16.22
2018-07-21T01:24:52.717Z,16.22
2018-07-21T01:27:21.918Z,16.23
2018-07-21T01:29:51.206Z,16.21
2018-07-21T01:32:20.366Z,16.17
2018-07-21T01:34:49.577Z,16.17
2018-07-21T01:37:18.718Z,16.15
2018-07-21T01:39:47.902Z,16.13
2018-07-21T01:42:17.067Z,16.10
2018-07-21T01:44:46.230Z,16.05
2018-07-21T01:47:15.390Z,15.94
2018-07-21T01:49:44.517Z,15.92
2018-07-21T01:52:15.230Z,15.92
2018-07-21T01:54:44.444Z,15.90
2018-07-21T01:57:14.393Z,15.87
2018-07-21T01:59:43.597Z,15.87
2018-07-21T02:02:12.864Z,15.86
2018-07-21T02:04:42.062Z,15.86
2018-07-21T02:07:11.885Z,15.82
2018-07-21T02:09:41.053Z,15.79
2018-07-21T02:12:10.288Z,15.75
2018-07-21T02:14:39.418Z,15.73
2018-07-21T02:17:08.751Z,15.71
2018-07-21T02:19:37.866Z,15.71
2018-07-21T02:22:07.061Z,15.64
2018-07-21T02:24:36.205Z,15.62
2018-07-21T02:27:05.401Z,15.62
2018-07-21T02:29:34.570Z,15.58
2018-07-21T02:32:03.760Z,15.58
2018-07-21T02:34:32.899Z,15.57
2018-07-21T02:37:02.085Z,15.58
2018-07-21T02:39:31.249Z,15.53
2018-07-21T02:42:00.448Z,15.50
2018-07-21T02:44:29.934Z,15.50
2018-07-21T02:46:59.117Z,15.50
2018-07-21T02:49:28.261Z,15.50
2018-07-21T02:51:57.430Z,15.51
2018-07-21T02:54:26.605Z,15.48
2018-07-21T02:56:55.751Z,15.46
2018-07-21T02:59:24.902Z,15.41
2018-07-21T03:01:54.053Z,15.37
2018-07-21T03:04:23.222Z,15.36
2018-07-21T03:06:52.357Z,15.33
2018-07-21T03:09:21.492Z,15.27
2018-07-21T03:11:50.643Z,15.20
2018-07-21T03:14:19.806Z,15.19
2018-07-21T03:16:49.723Z,15.19
2018-07-21T03:19:18.841Z,15.16
2018-07-21T03:21:48.001Z,15.13
2018-07-21T03:24:17.178Z,15.14
2018-07-21T03:26:46.322Z,15.15
2018-07-21T03:29:15.454Z,15.16
2018-07-21T03:31:44.630Z,15.19
2018-07-21T03:34:13.749Z,15.22
2018-07-21T03:36:42.892Z,15.18
2018-07-21T03:39:12.728Z,15.15
2018-07-21T03:41:41.879Z,15.14
2018-07-21T03:44:11.049Z,15.17
2018-07-21T03:46:40.233Z,15.20
2018-07-21T03:49:09.433Z,15.22
2018-07-21T03:51:38.570Z,15.27
2018-07-21T03:54:08.083Z,15.32
2018-07-21T03:56:37.251Z,15.35
2018-07-21T03:59:06.389Z,15.37
2018-07-21T04:01:35.557Z,15.43
2018-07-21T04:04:04.722Z,15.46
2018-07-21T04:06:33.898Z,15.46
2018-07-21T04:09:03.418Z,15.48
2018-07-21T04:11:32.550Z,15.51
2018-07-21T04:14:01.704Z,15.54
2018-07-21T04:16:30.957Z,15.57
2018-07-21T04:19:00.199Z,15.61
2018-07-21T04:21:29.353Z,15.69
2018-07-21T04:23:58.543Z,15.74
2018-07-21T04:26:27.688Z,15.81
2018-07-21T04:28:56.878Z,15.88
2018-07-21T04:31:26.148Z,15.99
2018-07-21T04:33:55.583Z,16.14
2018-07-21T04:36:25.069Z,16.32
2018-07-21T04:38:54.258Z,16.45
2018-07-21T04:41:23.402Z,16.50
2018-07-21T04:43:52.562Z,16.55
2018-07-21T04:46:21.739Z,16.63
2018-07-21T04:48:50.973Z,16.72
2018-07-21T04:51:20.114Z,16.85
2018-07-21T04:53:49.287Z,16.96
2018-07-21T04:56:18.434Z,17.01
2018-07-21T04:58:47.613Z,17.09
2018-07-21T05:01:16.781Z,17.19
2018-07-21T05:03:45.929Z,17.24
2018-07-21T05:06:15.076Z,17.31
2018-07-21T05:08:44.218Z,17.46
2018-07-21T05:11:13.381Z,17.59
2018-07-21T05:13:42.563Z,17.69
2018-07-21T05:16:11.713Z,17.78
2018-07-21T05:18:40.862Z,17.92
2018-07-21T05:21:11.030Z,17.98
2018-07-21T05:23:40.228Z,18.13
2018-07-21T05:26:09.501Z,18.24
2018-07-21T05:28:38.899Z,18.25
2018-07-21T05:31:08.471Z,18.29
2018-07-21T05:33:37.591Z,18.39
2018-07-21T05:36:06.803Z,18.50
2018-07-21T05:38:37.506Z,18.57
2018-07-21T05:41:06.724Z,18.64
2018-07-21T05:43:35.993Z,18.77
2018-07-21T05:46:05.172Z,18.86
2018-07-21T05:48:34.338Z,18.95
2018-07-21T05:51:03.543Z,19.06
2018-07-21T05:53:32.745Z,19.11
2018-07-21T05:56:01.889Z,19.19
2018-07-21T05:58:31.042Z,19.31
2018-07-21T06:01:00.229Z,19.38
2018-07-21T06:03:29.427Z,19.52
2018-07-21T06:05:58.652Z,19.69
2018-07-21T06:08:27.832Z,19.96
2018-07-21T06:10:57.055Z,20.26
2018-07-21T06:13:27.052Z,20.49
2018-07-21T06:15:56.245Z,20.80
2018-07-21T06:18:25.394Z,20.91
2018-07-21T06:20:54.666Z,21.13
2018-07-21T06:23:23.814Z,21.29
2018-07-21T06:25:52.981Z,21.48
2018-07-21T06:28:22.129Z,21.47
2018-07-21T06:30:51.373Z,21.63
2018-07-21T06:33:20.527Z,21.75
2018-07-21T06:35:49.709Z,21.79
2018-07-21T06:38:18.897Z,21.79
2018-07-21T06:40:48.093Z,21.71
2018-07-21T06:43:17.259Z,21.62
2018-07-21T06:45:46.454Z,21.55
2018-07-21T06:48:15.709Z,21.62
2018-07-21T06:50:44.808Z,21.88
2018-07-21T06:53:13.973Z,22.12
2018-07-21T06:55:43.152Z,22.28
2018-07-21T06:58:12.312Z,22.43
2018-07-21T07:00:41.464Z,22.51
2018-07-21T07:03:11.412Z,22.62
2018-07-21T07:05:40.550Z,22.79
2018-07-21T07:08:09.867Z,22.92
2018-07-21T07:10:39.067Z,22.90
2018-07-21T07:13:08.370Z,23.17
2018-07-21T07:15:37.532Z,23.37
2018-07-21T07:18:06.755Z,23.35
2018-07-21T07:20:36.127Z,23.35
2018-07-21T07:23:05.363Z,23.36
2018-07-21T07:25:34.613Z,23.30
2018-07-21T07:28:03.749Z,23.39
2018-07-21T07:30:33.062Z,23.70
2018-07-21T07:33:02.317Z,23.63
2018-07-21T07:35:31.611Z,23.46
2018-07-21T07:38:00.839Z,23.27
2018-07-21T07:40:29.963Z,23.19
2018-07-21T07:42:59.262Z,23.29
2018-07-21T07:45:28.482Z,23.32
2018-07-21T07:47:57.640Z,23.30
2018-07-21T07:50:26.778Z,23.57
2018-07-21T07:52:56.023Z,23.56
2018-07-21T07:55:29.174Z,23.70
2018-07-21T07:57:58.400Z,23.87
2018-07-21T08:00:27.716Z,23.96
2018-07-21T08:02:56.887Z,24.10
2018-07-21T08:05:26.389Z,24.05
2018-07-21T08:07:55.655Z,24.22
2018-07-21T08:10:24.942Z,24.32
2018-07-21T08:12:54.192Z,24.31
2018-07-21T08:15:23.538Z,24.39
2018-07-21T08:17:52.703Z,24.49
2018-07-21T08:20:21.921Z,24.61
2018-07-21T08:22:51.089Z,24.51
2018-07-21T08:25:20.442Z,24.51
2018-07-21T08:27:49.616Z,24.61
2018-07-21T08:30:18.781Z,24.67
2018-07-21T08:32:47.935Z,24.80
2018-07-21T08:35:17.136Z,24.75
2018-07-21T08:37:46.306Z,24.98
2018-07-21T08:40:16.420Z,25.11
2018-07-21T08:42:45.622Z,25.24
2018-07-21T08:45:14.859Z,25.29
2018-07-21T08:47:44.370Z,25.27
2018-07-21T08:50:13.550Z,25.15
2018-07-21T08:52:42.710Z,25.21
2018-07-21T08:55:11.921Z,25.26
2018-07-21T08:57:41.084Z,25.43
2018-07-21T09:00:10.230Z,25.87
2018-07-21T09:02:39.388Z,26.27
2018-07-21T09:05:08.692Z,26.40
2018-07-21T09:07:37.837Z,26.05
2018-07-21T09:10:07.210Z,26.12
2018-07-21T09:12:36.389Z,26.43
2018-07-21T09:15:05.680Z,26.77
2018-07-21T09:17:34.889Z,27.00
2018-07-21T09:20:04.101Z,26.99
2018-07-21T09:22:33.249Z,26.88
2018-07-21T09:25:02.408Z,27.14
2018-07-21T09:27:31.559Z,27.30
2018-07-21T09:30:00.694Z,27.50
2018-07-21T09:32:29.900Z,27.82
2018-07-21T09:34:59.069Z,27.67
2018-07-21T09:37:28.229Z,27.65
2018-07-21T09:39:57.369Z,27.68
2018-07-21T09:42:26.544Z,27.58
2018-07-21T09:44:55.716Z,27.28
2018-07-21T09:47:25.081Z,27.41
2018-07-21T09:49:54.251Z,27.50
2018-07-21T09:52:23.399Z,27.58
2018-07-21T09:54:52.645Z,28.14
2018-07-21T09:57:21.834Z,28.47
2018-07-21T09:59:50.980Z,28.48
2018-07-21T10:02:20.173Z,28.46
2018-07-21T10:04:49.323Z,28.41
2018-07-21T10:07:18.449Z,28.73
2018-07-21T10:09:47.617Z,28.96
2018-07-21T10:12:16.962Z,29.12
2018-07-21T10:14:46.163Z,29.47
2018-07-21T10:17:15.289Z,29.43
2018-07-21T10:19:44.430Z,29.58
2018-07-21T10:22:13.652Z,29.84
2018-07-21T10:24:47.905Z,29.78
2018-07-21T10:27:17.112Z,29.59
2018-07-21T10:29:46.240Z,29.12
2018-07-21T10:32:15.490Z,28.80
2018-07-21T10:34:44.669Z,28.87
2018-07-21T10:37:14.762Z,28.89
2018-07-21T10:39:43.982Z,28.69
2018-07-21T10:42:13.143Z,28.72
2018-07-21T10:44:42.265Z,28.74
2018-07-21T10:47:11.397Z,28.81
2018-07-21T10:49:41.396Z,29.03
2018-07-21T10:52:10.624Z,29.16
2018-07-21T10:54:39.794Z,29.57
2018-07-21T10:57:09.453Z,29.76
2018-07-21T10:59:38.631Z,29.76
2018-07-21T11:02:07.837Z,29.67
2018-07-21T11:04:37.024Z,29.67
2018-07-21T11:07:06.376Z,29.42
2018-07-21T11:09:35.535Z,29.35
2018-07-21T11:12:04.773Z,29.34
2018-07-21T11:14:33.946Z,29.29
2018-07-21T11:17:03.106Z,29.22
2018-07-21T11:19:32.244Z,29.16
2018-07-21T11:22:01.444Z,28.97
2018-07-21T11:24:30.897Z,28.79
2018-07-21T11:27:00.116Z,28.58
2018-07-21T11:29:29.256Z,28.36
2018-07-21T11:31:58.448Z,28.08
2018-07-21T11:34:27.730Z,27.63
2018-07-21T11:36:56.883Z,27.44
2018-07-21T11:39:26.117Z,27.34
2018-07-21T11:41:55.285Z,27.30
2018-07-21T11:44:24.480Z,27.15
2018-07-21T11:46:53.644Z,26.67
2018-07-21T11:49:23.500Z,26.30
2018-07-21T11:51:53.033Z,26.14
2018-07-21T11:54:22.369Z,26.01
2018-07-21T11:56:56.477Z,25.90
2018-07-21T11:59:25.647Z,25.82
2018-07-21T12:01:54.793Z,25.71
2018-07-21T12:04:24.476Z,25.64
2018-07-21T12:06:53.880Z,25.49
2018-07-21T12:09:27.349Z,25.45
2018-07-21T12:11:56.536Z,25.43
2018-07-21T12:14:25.743Z,25.40
2018-07-21T12:16:55.182Z,25.16
2018-07-21T12:19:24.354Z,24.98
2018-07-21T12:21:53.528Z,24.66
2018-07-21T12:24:23.310Z,24.24
2018-07-21T12:26:52.492Z,24.09
2018-07-21T12:29:21.936Z,23.88
2018-07-21T12:31:51.124Z,23.84
2018-07-21T12:34:20.315Z,23.73
2018-07-21T12:36:49.443Z,23.66
2018-07-21T12:39:18.664Z,23.58
2018-07-21T12:41:47.828Z,23.30
2018-07-21T12:44:17.012Z,23.07
2018-07-21T12:46:46.409Z,22.90
2018-07-21T12:49:15.578Z,22.88
2018-07-21T12:51:44.716Z,22.76
2018-07-21T12:54:13.971Z,22.48
2018-07-21T12:56:43.151Z,22.27
2018-07-21T12:59:12.325Z,22.11
2018-07-21T13:01:41.548Z,21.93
2018-07-21T13:04:10.770Z,21.81
2018-07-21T13:06:39.963Z,21.76
2018-07-21T13:09:11.029Z,21.74
2018-07-21T13:11:40.792Z,21.79
2018-07-21T13:14:10.320Z,21.92
2018-07-21T13:16:39.574Z,22.03
2018-07-21T13:19:09.660Z,22.29
2018-07-21T13:21:38.829Z,22.48
2018-07-21T13:24:08.037Z,22.69
2018-07-21T13:26:37.218Z,22.99
2018-07-21T13:29:06.394Z,23.01
2018-07-21T13:31:35.654Z,22.96
2018-07-21T13:34:04.770Z,22.91
2018-07-21T13:36:33.905Z,22.89
2018-07-21T13:39:03.254Z,22.90
2018-07-21T13:41:32.558Z,22.92
2018-07-21T13:44:01.745Z,23.02
2018-07-21T13:46:30.901Z,23.26
2018-07-21T13:49:00.092Z,23.47
2018-07-21T13:51:30.130Z,23.61
2018-07-21T13:54:00.372Z,23.77
2018-07-21T13:56:30.480Z,23.82
2018-07-21T13:58:59.819Z,23.88
2018-07-21T14:01:29.001Z,23.78
2018-07-21T14:03:58.189Z,23.80
2018-07-21T14:06:27.332Z,23.81
2018-07-21T14:08:57.673Z,23.91
2018-07-21T14:11:26.817Z,23.94
2018-07-21T14:13:55.971Z,23.92
2018-07-21T14:16:25.128Z,23.94
2018-07-21T14:18:54.300Z,23.86
2018-07-21T14:21:23.465Z,23.83
2018-07-21T14:23:52.645Z,23.77
2018-07-21T14:26:21.799Z,23.68
2018-07-21T14:28:50.935Z,23.56
2018-07-21T14:31:20.108Z,23.46
2018-07-21T14:33:49.222Z,23.47
2018-07-21T14:36:18.490Z,23.56
2018-07-21T14:38:47.526Z,23.51
2018-07-21T14:41:16.691Z,23.57
2018-07-21T14:43:46.284Z,23.66
2018-07-21T14:46:15.421Z,23.75
2018-07-21T14:48:44.566Z,23.84
2018-07-21T14:51:13.686Z,23.90
2018-07-21T14:53:42.819Z,23.92
2018-07-21T14:56:12.033Z,23.99
2018-07-21T14:58:41.151Z,24.04
2018-07-21T15:01:10.380Z,24.09
2018-07-21T15:03:39.452Z,24.07
2018-07-21T15:06:08.568Z,24.14
2018-07-21T15:08:37.746Z,24.21
2018-07-21T15:11:06.994Z,24.27
2018-07-21T15:13:36.193Z,24.26
2018-07-21T15:16:05.388Z,24.31
2018-07-21T15:18:34.630Z,24.35
2018-07-21T15:21:03.894Z,24.37
2018-07-21T15:23:33.051Z,24.55
2018-07-21T15:26:02.229Z,24.69
2018-07-21T15:28:31.324Z,24.68
2018-07-21T15:31:00.503Z,24.69
2018-07-21T15:33:29.644Z,24.65
2018-07-21T15:35:58.765Z,24.55
2018-07-21T15:38:27.922Z,24.60
2018-07-21T15:40:57.097Z,24.61
2018-07-21T15:43:26.322Z,24.53
2018-07-21T15:45:55.460Z,24.45
2018-07-21T15:48:24.920Z,24.46
2018-07-21T15:50:54.041Z,24.36
2018-07-21T15:53:23.185Z,24.26
2018-07-21T15:55:52.351Z,24.17
2018-07-21T15:58:21.790Z,24.16
2018-07-21T16:00:50.930Z,24.14
2018-07-21T16:03:20.085Z,24.04
2018-07-21T16:05:49.221Z,24.03
2018-07-21T16:08:18.393Z,24.05
2018-07-21T16:10:47.564Z,24.11
2018-07-21T16:13:16.787Z,24.13
2018-07-21T16:15:46.593Z,24.19
2018-07-21T16:18:15.741Z,24.21
2018-07-21T16:20:44.867Z,24.23
2018-07-21T16:23:14.046Z,24.32
2018-07-21T16:25:43.366Z,24.21
2018-07-21T16:28:12.505Z,24.24
2018-07-21T16:30:41.672Z,24.25
2018-07-21T16:33:11.928Z,24.29
2018-07-21T16:35:41.148Z,24.32
2018-07-21T16:38:10.294Z,24.22
2018-07-21T16:40:39.453Z,24.18
2018-07-21T16:43:08.709Z,24.11
2018-07-21T16:45:37.841Z,23.97
2018-07-21T16:48:06.959Z,23.86
2018-07-21T16:50:36.081Z,23.81
2018-07-21T16:53:05.538Z,23.80
2018-07-21T16:55:34.717Z,23.80
2018-07-21T16:58:04.039Z,23.74
2018-07-21T17:00:33.206Z,23.64
2018-07-21T17:03:02.326Z,23.67
2018-07-21T17:05:31.468Z,23.62
2018-07-21T17:08:00.738Z,23.62
2018-07-21T17:10:29.821Z,23.59
2018-07-21T17:12:58.959Z,23.55
2018-07-21T17:15:28.125Z,23.51
2018-07-21T17:17:57.248Z,23.51
2018-07-21T17:20:26.420Z,23.45
2018-07-21T17:22:55.611Z,23.41
2018-07-21T17:25:24.813Z,23.46
2018-07-21T17:27:54.034Z,23.40
2018-07-21T17:30:23.372Z,23.32
2018-07-21T17:32:52.490Z,23.26
2018-07-21T17:35:21.608Z,23.23
2018-07-21T17:37:50.947Z,23.15
2018-07-21T17:40:20.076Z,23.08
2018-07-21T17:42:49.213Z,23.11
2018-07-21T17:45:18.654Z,22.98
2018-07-21T17:47:47.886Z,22.88
2018-07-21T17:50:17.033Z,22.85
2018-07-21T17:52:46.165Z,22.77
2018-07-21T17:55:16.509Z,22.71
2018-07-21T17:57:45.640Z,22.68
2018-07-21T18:00:18.633Z,22.66
2018-07-21T18:02:49.059Z,22.66
2018-07-21T18:05:18.213Z,22.60
2018-07-21T18:07:47.366Z,22.57
2018-07-21T18:10:16.484Z,22.47
2018-07-21T18:12:45.614Z,22.40
2018-07-21T18:15:14.823Z,22.36
2018-07-21T18:17:43.956Z,22.30
2018-07-21T18:20:13.274Z,22.27
2018-07-21T18:22:42.324Z,22.21
2018-07-21T18:25:11.611Z,22.22
2018-07-21T18:27:40.781Z,22.19
2018-07-21T18:30:09.959Z,22.14
2018-07-21T18:32:39.142Z,22.09
2018-07-21T18:35:08.594Z,22.10
2018-07-21T18:37:37.768Z,22.06
2018-07-21T18:40:06.938Z,22.04
2018-07-21T18:42:36.086Z,22.00
2018-07-21T18:45:05.911Z,21.97
2018-07-21T18:47:35.088Z,21.93
2018-07-21T18:50:04.270Z,21.91
2018-07-21T18:52:33.465Z,21.88
2018-07-21T18:55:02.645Z,21.86
2018-07-21T18:57:31.772Z,21.84
2018-07-21T19:00:00.961Z,21.81
2018-07-21T19:02:30.111Z,21.77
2018-07-21T19:04:59.273Z,21.72
2018-07-21T19:07:28.413Z,21.67
2018-07-21T19:09:57.548Z,21.64
2018-07-21T19:12:31.908Z,21.59
2018-07-21T19:15:02.676Z,21.55
2018-07-21T19:17:31.889Z,21.51
2018-07-21T19:20:06.320Z,21.54
2018-07-21T19:22:35.488Z,21.52
2018-07-21T19:25:09.911Z,21.50
2018-07-21T19:27:39.173Z,21.47
2018-07-21T19:30:08.370Z,21.44
2018-07-21T19:32:42.833Z,21.43
2018-07-21T19:35:11.982Z,21.48
2018-07-21T19:37:46.461Z,21.44
2018-07-21T19:40:15.839Z,21.40
2018-07-21T19:42:45.018Z,21.37
2018-07-21T19:45:14.724Z,21.36
2018-07-21T19:47:44.098Z,21.33
2018-07-21T19:50:13.269Z,21.29
2018-07-21T19:52:42.481Z,21.28
2018-07-21T19:55:11.804Z,21.26
2018-07-21T19:57:40.926Z,21.22
2018-07-21T20:00:10.141Z,21.22
2018-07-21T20:02:39.272Z,21.20
2018-07-21T20:05:08.495Z,21.18
2018-07-21T20:07:37.766Z,21.18
2018-07-21T20:10:07.061Z,21.17
2018-07-21T20:12:36.219Z,21.18
2018-07-21T20:15:05.511Z,21.17
2018-07-21T20:17:34.714Z,21.17
2018-07-21T20:20:03.847Z,21.16
2018-07-21T20:22:33.005Z,21.14
2018-07-21T20:25:02.158Z,21.11
2018-07-21T20:27:31.291Z,21.10
2018-07-21T20:30:01.289Z,21.10
2018-07-21T20:32:30.461Z,21.06
2018-07-21T20:34:59.685Z,21.03
2018-07-21T20:37:28.824Z,21.02
2018-07-21T20:39:57.929Z,21.02
2018-07-21T20:42:27.113Z,21.00
2018-07-21T20:44:56.291Z,21.00
2018-07-21T20:47:25.450Z,20.97
2018-07-21T20:49:54.618Z,20.94
2018-07-21T20:52:23.781Z,20.91
2018-07-21T20:54:52.973Z,20.87
2018-07-21T20:57:22.124Z,20.82
2018-07-21T20:59:51.295Z,20.78
2018-07-21T21:02:20.443Z,20.82
2018-07-21T21:04:49.575Z,20.64
2018-07-21T21:07:18.717Z,20.72
2018-07-21T21:09:47.856Z,20.69
2018-07-21T21:12:17.017Z,20.65
2018-07-21T21:14:46.197Z,20.63
2018-07-21T21:17:15.341Z,20.59
2018-07-21T21:19:44.466Z,20.56
2018-07-21T21:22:13.810Z,20.51
2018-07-21T21:24:43.029Z,20.43
2018-07-21T21:27:12.178Z,20.37
2018-07-21T21:29:41.324Z,20.30
2018-07-21T21:32:10.493Z,20.26
2018-07-21T21:34:39.984Z,20.23
2018-07-21T21:37:09.353Z,20.21
2018-07-21T21:39:38.509Z,20.16
2018-07-21T21:42:07.727Z,20.13
2018-07-21T21:44:36.812Z,20.12
2018-07-21T21:47:06.028Z,20.07
2018-07-21T21:49:35.160Z,20.05
2018-07-21T21:52:04.345Z,20.01
2018-07-21T21:54:33.669Z,19.99
2018-07-21T21:57:02.834Z,19.95
2018-07-21T21:59:31.985Z,19.93
2018-07-21T22:02:01.114Z,19.91
2018-07-21T22:04:30.327Z,19.89
2018-07-21T22:06:59.476Z,19.87
2018-07-21T22:09:28.652Z,19.85
2018-07-21T22:11:57.838Z,19.84
2018-07-21T22:14:27.063Z,19.82
2018-07-21T22:16:56.229Z,19.80
2018-07-21T22:19:25.362Z,19.79
2018-07-21T22:21:54.578Z,19.81
2018-07-21T22:24:23.728Z,19.80
2018-07-21T22:26:52.864Z,19.79
2018-07-21T22:29:22.105Z,19.77
2018-07-21T22:31:51.290Z,19.75
2018-07-21T22:34:20.440Z,19.74
2018-07-21T22:36:49.644Z,19.75
2018-07-21T22:39:18.781Z,19.74
2018-07-21T22:41:47.937Z,19.73
2018-07-21T22:44:17.158Z,19.71
2018-07-21T22:46:46.280Z,19.70
2018-07-21T22:49:15.422Z,19.67
2018-07-21T22:51:44.609Z,19.67
2018-07-21T22:54:13.757Z,19.65
2018-07-21T22:56:42.890Z,19.66
2018-07-21T22:59:12.072Z,19.65
2018-07-21T23:01:42.044Z,19.66
2018-07-21T23:04:11.163Z,19.66
2018-07-21T23:06:40.383Z,19.63
2018-07-21T23:09:10.070Z,19.64
2018-07-21T23:11:39.422Z,19.66
2018-07-21T23:14:09.070Z,19.57
2018-07-21T23:16:38.233Z,19.55
2018-07-21T23:19:07.671Z,19.47
2018-07-21T23:21:36.762Z,19.41
2018-07-21T23:24:06.118Z,19.39
2018-07-21T23:26:35.287Z,19.37
2018-07-21T23:29:04.508Z,19.32
2018-07-21T23:31:33.797Z,19.25
2018-07-21T23:34:03.752Z,19.23
2018-07-21T23:36:32.929Z,19.23
2018-07-21T23:39:02.418Z,19.20
2018-07-21T23:41:31.548Z,19.15
2018-07-21T23:44:00.713Z,19.12
2018-07-21T23:46:29.929Z,19.10
2018-07-21T23:48:59.089Z,19.09
2018-07-21T23:51:28.293Z,19.09
2018-07-21T23:53:57.494Z,19.08
2018-07-21T23:56:26.652Z,19.06
2018-07-21T23:58:55.845Z,19.04
